sensor_id;sensor_type;location;lat;lon;timestamp;P1;durP1;ratioP1;P2;durP2;ratioP2
58101;SDS011;52034;51.926;6.320;2023-12-07T00:00:45;24.33;;;21.33;;
58101;SDS011;52034;51.926;6.320;2023-12-07T00:01:45;23.57;;;20.80;;
58101;SDS011;52034;51.926;6.320;2023-12-07T00:02:46;30.37;;;22.00;;
58101;SDS011;52034;51.926;6.320;2023-12-07T00:03:46;48.10;;;22.93;;
58101;SDS011;52034;51.926;6.320;2023-12-07T00:04:47;26.43;;;19.80;;
58101;SDS011;52034;51.926;6.320;2023-12-07T00:05:47;22.47;;;18.70;;
58101;SDS011;52034;51.926;6.320;2023-12-07T00:06:48;21.23;;;18.47;;
58101;SDS011;52034;51.926;6.320;2023-12-07T00:07:48;22.17;;;18.67;;
58101;SDS011;52034;51.926;6.320;2023-12-07T00:08:48;22.47;;;19.10;;
58101;SDS011;52034;51.926;6.320;2023-12-07T00:09:49;24.67;;;21.03;;
58101;SDS011;52034;51.926;6.320;2023-12-07T00:10:49;22.93;;;19.90;;
58101;SDS011;52034;51.926;6.320;2023-12-07T00:11:50;23.00;;;20.60;;
58101;SDS011;52034;51.926;6.320;2023-12-07T00:12:50;29.13;;;21.30;;
58101;SDS011;52034;51.926;6.320;2023-12-07T00:13:51;35.17;;;22.47;;
58101;SDS011;52034;51.926;6.320;2023-12-07T00:14:52;55.67;;;23.13;;
58101;SDS011;52034;51.926;6.320;2023-12-07T00:15:52;51.23;;;20.57;;
58101;SDS011;52034;51.926;6.320;2023-12-07T00:16:52;33.43;;;22.63;;
58101;SDS011;52034;51.926;6.320;2023-12-07T00:17:54;32.58;;;22.85;;
58101;SDS011;52034;51.926;6.320;2023-12-07T00:18:54;44.67;;;25.60;;
58101;SDS011;52034;51.926;6.320;2023-12-07T00:19:55;43.63;;;26.23;;
58101;SDS011;52034;51.926;6.320;2023-12-07T00:20:55;31.57;;;22.30;;
58101;SDS011;52034;51.926;6.320;2023-12-07T00:21:56;27.30;;;22.33;;
58101;SDS011;52034;51.926;6.320;2023-12-07T00:22:56;49.63;;;24.73;;
58101;SDS011;52034;51.926;6.320;2023-12-07T00:23:56;34.43;;;23.70;;
58101;SDS011;52034;51.926;6.320;2023-12-07T00:24:57;41.53;;;24.23;;
58101;SDS011;52034;51.926;6.320;2023-12-07T00:25:57;39.07;;;24.07;;
58101;SDS011;52034;51.926;6.320;2023-12-07T00:26:58;52.33;;;25.63;;
58101;SDS011;52034;51.926;6.320;2023-12-07T00:27:58;44.97;;;23.67;;
58101;SDS011;52034;51.926;6.320;2023-12-07T00:29:00;99.43;;;28.55;;
58101;SDS011;52034;51.926;6.320;2023-12-07T00:30:00;43.73;;;24.47;;
58101;SDS011;52034;51.926;6.320;2023-12-07T00:31:01;42.53;;;24.93;;
58101;SDS011;52034;51.926;6.320;2023-12-07T00:32:02;151.38;;;31.80;;
58101;SDS011;52034;51.926;6.320;2023-12-07T00:33:03;113.50;;;30.17;;
58101;SDS011;52034;51.926;6.320;2023-12-07T00:34:03;176.30;;;34.57;;
58101;SDS011;52034;51.926;6.320;2023-12-07T00:35:04;430.07;;;51.97;;
58101;SDS011;52034;51.926;6.320;2023-12-07T00:36:05;216.68;;;36.17;;
58101;SDS011;52034;51.926;6.320;2023-12-07T00:37:05;204.48;;;39.63;;
58101;SDS011;52034;51.926;6.320;2023-12-07T00:38:07;75.20;;;29.23;;
58101;SDS011;52034;51.926;6.320;2023-12-07T00:39:08;56.40;;;27.55;;
58101;SDS011;52034;51.926;6.320;2023-12-07T00:40:09;61.53;;;27.37;;
58101;SDS011;52034;51.926;6.320;2023-12-07T00:41:09;75.10;;;27.63;;
58101;SDS011;52034;51.926;6.320;2023-12-07T00:42:10;150.50;;;32.60;;
58101;SDS011;52034;51.926;6.320;2023-12-07T00:43:10;66.77;;;26.70;;
58101;SDS011;52034;51.926;6.320;2023-12-07T00:44:11;39.80;;;23.27;;
58101;SDS011;52034;51.926;6.320;2023-12-07T00:45:11;75.43;;;26.40;;
58101;SDS011;52034;51.926;6.320;2023-12-07T00:46:12;53.30;;;23.92;;
58101;SDS011;52034;51.926;6.320;2023-12-07T00:47:13;33.60;;;22.30;;
58101;SDS011;52034;51.926;6.320;2023-12-07T00:48:13;41.60;;;22.30;;
58101;SDS011;52034;51.926;6.320;2023-12-07T00:49:13;54.83;;;22.83;;
58101;SDS011;52034;51.926;6.320;2023-12-07T00:50:14;36.77;;;21.00;;
58101;SDS011;52034;51.926;6.320;2023-12-07T00:51:14;43.73;;;22.00;;
58101;SDS011;52034;51.926;6.320;2023-12-07T00:52:15;32.05;;;20.95;;
58101;SDS011;52034;51.926;6.320;2023-12-07T00:53:16;38.30;;;21.13;;
58101;SDS011;52034;51.926;6.320;2023-12-07T00:54:16;36.63;;;21.73;;
58101;SDS011;52034;51.926;6.320;2023-12-07T00:55:16;40.83;;;22.13;;
58101;SDS011;52034;51.926;6.320;2023-12-07T00:56:17;48.63;;;21.53;;
58101;SDS011;52034;51.926;6.320;2023-12-07T00:57:17;51.63;;;22.43;;
58101;SDS011;52034;51.926;6.320;2023-12-07T00:58:18;149.23;;;27.03;;
58101;SDS011;52034;51.926;6.320;2023-12-07T00:59:18;115.90;;;25.33;;
58101;SDS011;52034;51.926;6.320;2023-12-07T01:00:18;124.70;;;26.10;;
58101;SDS011;52034;51.926;6.320;2023-12-07T01:01:19;92.60;;;25.47;;
58101;SDS011;52034;51.926;6.320;2023-12-07T01:02:19;36.27;;;21.43;;
58101;SDS011;52034;51.926;6.320;2023-12-07T01:03:20;24.43;;;20.20;;
58101;SDS011;52034;51.926;6.320;2023-12-07T01:04:20;31.17;;;20.50;;
58101;SDS011;52034;51.926;6.320;2023-12-07T01:05:21;65.73;;;22.47;;
58101;SDS011;52034;51.926;6.320;2023-12-07T01:06:21;32.43;;;21.17;;
58101;SDS011;52034;51.926;6.320;2023-12-07T01:07:22;26.47;;;20.53;;
58101;SDS011;52034;51.926;6.320;2023-12-07T01:08:22;27.70;;;22.13;;
58101;SDS011;52034;51.926;6.320;2023-12-07T01:09:22;21.63;;;19.43;;
58101;SDS011;52034;51.926;6.320;2023-12-07T01:10:23;20.07;;;18.07;;
58101;SDS011;52034;51.926;6.320;2023-12-07T01:11:23;22.23;;;19.40;;
58101;SDS011;52034;51.926;6.320;2023-12-07T01:12:25;21.45;;;19.33;;
58101;SDS011;52034;51.926;6.320;2023-12-07T01:13:25;23.10;;;20.23;;
58101;SDS011;52034;51.926;6.320;2023-12-07T01:14:25;24.90;;;22.27;;
58101;SDS011;52034;51.926;6.320;2023-12-07T01:15:26;24.33;;;21.77;;
58101;SDS011;52034;51.926;6.320;2023-12-07T01:16:27;27.10;;;23.47;;
58101;SDS011;52034;51.926;6.320;2023-12-07T01:17:27;32.93;;;23.67;;
58101;SDS011;52034;51.926;6.320;2023-12-07T01:18:27;55.80;;;26.83;;
58101;SDS011;52034;51.926;6.320;2023-12-07T01:19:28;107.23;;;28.77;;
58101;SDS011;52034;51.926;6.320;2023-12-07T01:20:28;80.77;;;28.57;;
58101;SDS011;52034;51.926;6.320;2023-12-07T01:21:29;36.73;;;24.93;;
58101;SDS011;52034;51.926;6.320;2023-12-07T01:22:29;26.37;;;22.13;;
58101;SDS011;52034;51.926;6.320;2023-12-07T01:23:29;117.83;;;35.77;;
58101;SDS011;52034;51.926;6.320;2023-12-07T01:24:30;137.37;;;35.20;;
58101;SDS011;52034;51.926;6.320;2023-12-07T01:25:30;37.57;;;22.20;;
58101;SDS011;52034;51.926;6.320;2023-12-07T01:26:31;60.80;;;24.05;;
58101;SDS011;52034;51.926;6.320;2023-12-07T01:27:32;45.97;;;23.00;;
58101;SDS011;52034;51.926;6.320;2023-12-07T01:28:32;140.17;;;28.30;;
58101;SDS011;52034;51.926;6.320;2023-12-07T01:29:34;67.78;;;23.20;;
58101;SDS011;52034;51.926;6.320;2023-12-07T01:30:34;70.83;;;23.27;;
58101;SDS011;52034;51.926;6.320;2023-12-07T01:31:36;68.40;;;23.98;;
58101;SDS011;52034;51.926;6.320;2023-12-07T01:32:37;124.63;;;31.30;;
58101;SDS011;52034;51.926;6.320;2023-12-07T01:33:37;68.00;;;24.47;;
58101;SDS011;52034;51.926;6.320;2023-12-07T01:34:37;45.10;;;24.70;;
58101;SDS011;52034;51.926;6.320;2023-12-07T01:35:38;62.27;;;30.70;;
58101;SDS011;52034;51.926;6.320;2023-12-07T01:36:38;23.23;;;20.83;;
58101;SDS011;52034;51.926;6.320;2023-12-07T01:37:38;23.93;;;21.20;;
58101;SDS011;52034;51.926;6.320;2023-12-07T01:38:39;30.17;;;22.23;;
58101;SDS011;52034;51.926;6.320;2023-12-07T01:39:41;36.77;;;24.13;;
58101;SDS011;52034;51.926;6.320;2023-12-07T01:40:42;31.80;;;23.83;;
58101;SDS011;52034;51.926;6.320;2023-12-07T01:41:42;37.63;;;23.85;;
58101;SDS011;52034;51.926;6.320;2023-12-07T01:42:50;64.70;;;25.80;;
58101;SDS011;52034;51.926;6.320;2023-12-07T01:43:51;79.32;;;27.60;;
58101;SDS011;52034;51.926;6.320;2023-12-07T01:44:51;72.87;;;26.10;;
58101;SDS011;52034;51.926;6.320;2023-12-07T01:45:52;77.67;;;25.63;;
58101;SDS011;52034;51.926;6.320;2023-12-07T01:46:56;92.30;;;26.67;;
58101;SDS011;52034;51.926;6.320;2023-12-07T01:47:57;86.85;;;25.60;;
58101;SDS011;52034;51.926;6.320;2023-12-07T01:48:59;58.90;;;26.48;;
58101;SDS011;52034;51.926;6.320;2023-12-07T01:50:00;69.70;;;27.35;;
58101;SDS011;52034;51.926;6.320;2023-12-07T01:51:04;123.60;;;28.83;;
58101;SDS011;52034;51.926;6.320;2023-12-07T01:53:06;71.38;;;28.52;;
58101;SDS011;52034;51.926;6.320;2023-12-07T01:54:07;42.43;;;23.67;;
58101;SDS011;52034;51.926;6.320;2023-12-07T01:55:07;79.07;;;28.13;;
58101;SDS011;52034;51.926;6.320;2023-12-07T01:56:10;26.45;;;20.50;;
58101;SDS011;52034;51.926;6.320;2023-12-07T01:57:12;50.25;;;23.25;;
58101;SDS011;52034;51.926;6.320;2023-12-07T01:58:12;31.43;;;22.70;;
58101;SDS011;52034;51.926;6.320;2023-12-07T01:59:15;29.77;;;23.65;;
58101;SDS011;52034;51.926;6.320;2023-12-07T02:00:16;25.53;;;22.43;;
58101;SDS011;52034;51.926;6.320;2023-12-07T02:01:16;29.17;;;23.70;;
58101;SDS011;52034;51.926;6.320;2023-12-07T02:02:17;24.80;;;22.23;;
58101;SDS011;52034;51.926;6.320;2023-12-07T02:03:17;26.87;;;22.73;;
58101;SDS011;52034;51.926;6.320;2023-12-07T02:04:18;25.63;;;22.27;;
58101;SDS011;52034;51.926;6.320;2023-12-07T02:05:19;24.00;;;21.47;;
58101;SDS011;52034;51.926;6.320;2023-12-07T02:06:19;24.90;;;22.23;;
58101;SDS011;52034;51.926;6.320;2023-12-07T02:07:21;24.88;;;22.17;;
58101;SDS011;52034;51.926;6.320;2023-12-07T02:08:23;43.92;;;25.65;;
58101;SDS011;52034;51.926;6.320;2023-12-07T02:09:24;60.77;;;27.87;;
58101;SDS011;52034;51.926;6.320;2023-12-07T02:10:24;32.77;;;23.53;;
58101;SDS011;52034;51.926;6.320;2023-12-07T02:11:25;30.57;;;23.90;;
58101;SDS011;52034;51.926;6.320;2023-12-07T02:12:25;38.37;;;26.83;;
58101;SDS011;52034;51.926;6.320;2023-12-07T02:13:29;41.28;;;27.92;;
58101;SDS011;52034;51.926;6.320;2023-12-07T02:14:30;39.57;;;25.13;;
58101;SDS011;52034;51.926;6.320;2023-12-07T02:15:30;44.47;;;26.27;;
58101;SDS011;52034;51.926;6.320;2023-12-07T02:16:32;52.80;;;27.10;;
58101;SDS011;52034;51.926;6.320;2023-12-07T02:18:51;45.97;;;28.08;;
58101;SDS011;52034;51.926;6.320;2023-12-07T02:20:03;38.65;;;27.25;;
58101;SDS011;52034;51.926;6.320;2023-12-07T02:22:22;79.07;;;28.17;;
58101;SDS011;52034;51.926;6.320;2023-12-07T02:23:28;45.00;;;28.90;;
58101;SDS011;52034;51.926;6.320;2023-12-07T02:24:29;105.45;;;33.70;;
58101;SDS011;52034;51.926;6.320;2023-12-07T02:25:40;62.05;;;28.55;;
58101;SDS011;52034;51.926;6.320;2023-12-07T02:26:44;49.20;;;27.10;;
58101;SDS011;52034;51.926;6.320;2023-12-07T02:27:45;53.03;;;27.47;;
58101;SDS011;52034;51.926;6.320;2023-12-07T02:28:48;279.27;;;44.92;;
58101;SDS011;52034;51.926;6.320;2023-12-07T02:29:49;111.87;;;35.00;;
58101;SDS011;52034;51.926;6.320;2023-12-07T02:30:49;180.23;;;37.77;;
58101;SDS011;52034;51.926;6.320;2023-12-07T02:31:49;55.73;;;27.87;;
58101;SDS011;52034;51.926;6.320;2023-12-07T02:32:50;170.23;;;39.37;;
58101;SDS011;52034;51.926;6.320;2023-12-07T02:33:50;104.17;;;32.53;;
58101;SDS011;52034;51.926;6.320;2023-12-07T02:34:51;146.30;;;37.23;;
58101;SDS011;52034;51.926;6.320;2023-12-07T02:35:51;96.33;;;32.77;;
58101;SDS011;52034;51.926;6.320;2023-12-07T02:36:52;114.97;;;35.40;;
58101;SDS011;52034;51.926;6.320;2023-12-07T02:37:55;125.13;;;38.13;;
58101;SDS011;52034;51.926;6.320;2023-12-07T02:38:56;89.50;;;34.63;;
58101;SDS011;52034;51.926;6.320;2023-12-07T02:39:58;56.65;;;31.65;;
58101;SDS011;52034;51.926;6.320;2023-12-07T02:40:58;69.67;;;33.00;;
58101;SDS011;52034;51.926;6.320;2023-12-07T02:41:59;110.43;;;34.45;;
58101;SDS011;52034;51.926;6.320;2023-12-07T02:43:01;162.10;;;31.67;;
58101;SDS011;52034;51.926;6.320;2023-12-07T02:44:03;143.15;;;35.63;;
58101;SDS011;52034;51.926;6.320;2023-12-07T02:45:04;166.70;;;35.00;;
58101;SDS011;52034;51.926;6.320;2023-12-07T02:46:05;174.57;;;36.65;;
58101;SDS011;52034;51.926;6.320;2023-12-07T02:47:06;160.07;;;35.30;;
58101;SDS011;52034;51.926;6.320;2023-12-07T02:48:06;125.77;;;33.70;;
58101;SDS011;52034;51.926;6.320;2023-12-07T02:49:07;130.40;;;31.77;;
58101;SDS011;52034;51.926;6.320;2023-12-07T02:50:07;153.27;;;31.87;;
58101;SDS011;52034;51.926;6.320;2023-12-07T02:51:08;118.38;;;35.28;;
58101;SDS011;52034;51.926;6.320;2023-12-07T02:52:09;144.17;;;36.83;;
58101;SDS011;52034;51.926;6.320;2023-12-07T02:53:09;131.17;;;38.40;;
58101;SDS011;52034;51.926;6.320;2023-12-07T02:54:09;102.17;;;35.70;;
58101;SDS011;52034;51.926;6.320;2023-12-07T02:55:10;91.40;;;34.83;;
58101;SDS011;52034;51.926;6.320;2023-12-07T02:56:11;67.53;;;33.53;;
58101;SDS011;52034;51.926;6.320;2023-12-07T02:57:11;93.50;;;35.10;;
58101;SDS011;52034;51.926;6.320;2023-12-07T02:58:12;126.13;;;37.67;;
58101;SDS011;52034;51.926;6.320;2023-12-07T02:59:12;120.90;;;38.33;;
58101;SDS011;52034;51.926;6.320;2023-12-07T03:00:13;106.13;;;38.03;;
58101;SDS011;52034;51.926;6.320;2023-12-07T03:01:14;119.43;;;38.35;;
58101;SDS011;52034;51.926;6.320;2023-12-07T03:02:14;112.70;;;37.03;;
58101;SDS011;52034;51.926;6.320;2023-12-07T03:03:15;72.53;;;34.47;;
58101;SDS011;52034;51.926;6.320;2023-12-07T03:04:15;125.80;;;37.57;;
58101;SDS011;52034;51.926;6.320;2023-12-07T03:05:16;135.07;;;39.10;;
58101;SDS011;52034;51.926;6.320;2023-12-07T03:06:16;101.53;;;34.95;;
58101;SDS011;52034;51.926;6.320;2023-12-07T03:07:17;78.30;;;30.10;;
58101;SDS011;52034;51.926;6.320;2023-12-07T03:08:17;104.33;;;32.43;;
58101;SDS011;52034;51.926;6.320;2023-12-07T03:09:18;109.37;;;32.37;;
58101;SDS011;52034;51.926;6.320;2023-12-07T03:10:18;86.23;;;31.03;;
58101;SDS011;52034;51.926;6.320;2023-12-07T03:11:18;236.37;;;40.03;;
58101;SDS011;52034;51.926;6.320;2023-12-07T03:12:19;123.07;;;32.33;;
58101;SDS011;52034;51.926;6.320;2023-12-07T03:13:19;84.87;;;29.30;;
58101;SDS011;52034;51.926;6.320;2023-12-07T03:14:20;110.20;;;30.57;;
58101;SDS011;52034;51.926;6.320;2023-12-07T03:15:20;128.80;;;30.93;;
58101;SDS011;52034;51.926;6.320;2023-12-07T03:16:21;124.70;;;32.23;;
58101;SDS011;52034;51.926;6.320;2023-12-07T03:17:21;108.03;;;32.23;;
58101;SDS011;52034;51.926;6.320;2023-12-07T03:18:21;108.50;;;31.10;;
58101;SDS011;52034;51.926;6.320;2023-12-07T03:19:22;140.73;;;31.93;;
58101;SDS011;52034;51.926;6.320;2023-12-07T03:20:22;246.47;;;41.13;;
58101;SDS011;52034;51.926;6.320;2023-12-07T03:21:23;161.17;;;34.53;;
58101;SDS011;52034;51.926;6.320;2023-12-07T03:22:23;152.93;;;33.30;;
58101;SDS011;52034;51.926;6.320;2023-12-07T03:23:24;142.20;;;34.00;;
58101;SDS011;52034;51.926;6.320;2023-12-07T03:24:25;151.93;;;34.10;;
58101;SDS011;52034;51.926;6.320;2023-12-07T03:25:25;177.73;;;36.70;;
58101;SDS011;52034;51.926;6.320;2023-12-07T03:26:26;264.30;;;46.70;;
58101;SDS011;52034;51.926;6.320;2023-12-07T03:27:26;159.07;;;36.97;;
58101;SDS011;52034;51.926;6.320;2023-12-07T03:28:28;118.03;;;33.45;;
58101;SDS011;52034;51.926;6.320;2023-12-07T03:29:28;226.60;;;41.13;;
58101;SDS011;52034;51.926;6.320;2023-12-07T03:30:29;225.23;;;42.60;;
58101;SDS011;52034;51.926;6.320;2023-12-07T03:31:29;186.57;;;40.37;;
58101;SDS011;52034;51.926;6.320;2023-12-07T03:32:30;134.17;;;35.63;;
58101;SDS011;52034;51.926;6.320;2023-12-07T03:33:30;198.20;;;39.83;;
58101;SDS011;52034;51.926;6.320;2023-12-07T03:34:31;232.83;;;42.43;;
58101;SDS011;52034;51.926;6.320;2023-12-07T03:35:31;102.10;;;35.17;;
58101;SDS011;52034;51.926;6.320;2023-12-07T03:36:31;156.83;;;38.47;;
58101;SDS011;52034;51.926;6.320;2023-12-07T03:37:32;148.17;;;35.63;;
58101;SDS011;52034;51.926;6.320;2023-12-07T03:38:32;203.53;;;43.70;;
58101;SDS011;52034;51.926;6.320;2023-12-07T03:39:33;83.57;;;32.37;;
58101;SDS011;52034;51.926;6.320;2023-12-07T03:40:33;105.87;;;33.37;;
58101;SDS011;52034;51.926;6.320;2023-12-07T03:41:34;222.37;;;43.13;;
58101;SDS011;52034;51.926;6.320;2023-12-07T03:42:34;170.55;;;41.30;;
58101;SDS011;52034;51.926;6.320;2023-12-07T03:43:35;209.77;;;45.27;;
58101;SDS011;52034;51.926;6.320;2023-12-07T03:44:35;194.63;;;44.87;;
58101;SDS011;52034;51.926;6.320;2023-12-07T03:45:36;311.37;;;54.10;;
58101;SDS011;52034;51.926;6.320;2023-12-07T03:46:36;119.53;;;36.37;;
58101;SDS011;52034;51.926;6.320;2023-12-07T03:47:36;108.70;;;34.20;;
58101;SDS011;52034;51.926;6.320;2023-12-07T03:48:37;193.83;;;40.10;;
58101;SDS011;52034;51.926;6.320;2023-12-07T03:49:37;389.23;;;66.17;;
58101;SDS011;52034;51.926;6.320;2023-12-07T03:50:38;278.58;;;56.95;;
58101;SDS011;52034;51.926;6.320;2023-12-07T03:51:39;180.73;;;46.53;;
58101;SDS011;52034;51.926;6.320;2023-12-07T03:52:39;157.03;;;39.23;;
58101;SDS011;52034;51.926;6.320;2023-12-07T03:53:40;116.17;;;35.83;;
58101;SDS011;52034;51.926;6.320;2023-12-07T03:54:40;159.52;;;39.47;;
58101;SDS011;52034;51.926;6.320;2023-12-07T03:55:41;202.00;;;50.90;;
58101;SDS011;52034;51.926;6.320;2023-12-07T03:56:41;86.37;;;36.37;;
58101;SDS011;52034;51.926;6.320;2023-12-07T03:57:42;105.77;;;38.40;;
58101;SDS011;52034;51.926;6.320;2023-12-07T03:58:42;150.43;;;44.27;;
58101;SDS011;52034;51.926;6.320;2023-12-07T03:59:43;79.13;;;33.17;;
58101;SDS011;52034;51.926;6.320;2023-12-07T04:00:44;160.47;;;44.93;;
58101;SDS011;52034;51.926;6.320;2023-12-07T04:01:44;74.85;;;34.08;;
58101;SDS011;52034;51.926;6.320;2023-12-07T04:02:45;148.40;;;42.75;;
58101;SDS011;52034;51.926;6.320;2023-12-07T04:03:46;146.60;;;42.67;;
58101;SDS011;52034;51.926;6.320;2023-12-07T04:04:46;103.07;;;35.27;;
58101;SDS011;52034;51.926;6.320;2023-12-07T04:05:46;126.00;;;36.53;;
58101;SDS011;52034;51.926;6.320;2023-12-07T04:06:47;134.33;;;40.70;;
58101;SDS011;52034;51.926;6.320;2023-12-07T04:07:48;231.48;;;56.05;;
58101;SDS011;52034;51.926;6.320;2023-12-07T04:08:49;154.83;;;43.47;;
58101;SDS011;52034;51.926;6.320;2023-12-07T04:09:49;141.55;;;40.55;;
58101;SDS011;52034;51.926;6.320;2023-12-07T04:10:50;263.97;;;58.87;;
58101;SDS011;52034;51.926;6.320;2023-12-07T04:11:50;129.60;;;37.53;;
58101;SDS011;52034;51.926;6.320;2023-12-07T04:12:51;153.73;;;41.20;;
58101;SDS011;52034;51.926;6.320;2023-12-07T04:13:54;77.90;;;34.53;;
58101;SDS011;52034;51.926;6.320;2023-12-07T04:14:54;109.73;;;37.83;;
58101;SDS011;52034;51.926;6.320;2023-12-07T04:15:55;151.87;;;44.60;;
58101;SDS011;52034;51.926;6.320;2023-12-07T04:16:55;96.03;;;36.03;;
58101;SDS011;52034;51.926;6.320;2023-12-07T04:17:56;285.47;;;59.97;;
58101;SDS011;52034;51.926;6.320;2023-12-07T04:18:56;147.73;;;37.63;;
58101;SDS011;52034;51.926;6.320;2023-12-07T04:19:56;226.63;;;49.77;;
58101;SDS011;52034;51.926;6.320;2023-12-07T04:20:57;129.40;;;40.93;;
58101;SDS011;52034;51.926;6.320;2023-12-07T04:21:57;148.57;;;42.77;;
58101;SDS011;52034;51.926;6.320;2023-12-07T04:22:58;160.47;;;43.63;;
58101;SDS011;52034;51.926;6.320;2023-12-07T04:23:58;120.77;;;37.83;;
58101;SDS011;52034;51.926;6.320;2023-12-07T04:24:59;120.83;;;40.00;;
58101;SDS011;52034;51.926;6.320;2023-12-07T04:26:00;221.40;;;57.13;;
58101;SDS011;52034;51.926;6.320;2023-12-07T04:27:00;127.10;;;40.00;;
58101;SDS011;52034;51.926;6.320;2023-12-07T04:28:00;91.17;;;37.73;;
58101;SDS011;52034;51.926;6.320;2023-12-07T04:29:01;167.17;;;48.40;;
58101;SDS011;52034;51.926;6.320;2023-12-07T04:30:01;96.77;;;37.80;;
58101;SDS011;52034;51.926;6.320;2023-12-07T04:31:04;135.00;;;42.15;;
58101;SDS011;52034;51.926;6.320;2023-12-07T04:32:06;196.48;;;49.38;;
58101;SDS011;52034;51.926;6.320;2023-12-07T04:33:07;258.55;;;58.03;;
58101;SDS011;52034;51.926;6.320;2023-12-07T04:34:07;260.77;;;68.33;;
58101;SDS011;52034;51.926;6.320;2023-12-07T04:35:08;170.90;;;46.73;;
58101;SDS011;52034;51.926;6.320;2023-12-07T04:36:08;119.60;;;39.97;;
58101;SDS011;52034;51.926;6.320;2023-12-07T04:37:09;254.17;;;63.23;;
58101;SDS011;52034;51.926;6.320;2023-12-07T04:38:10;137.83;;;43.70;;
58101;SDS011;52034;51.926;6.320;2023-12-07T04:39:10;156.23;;;43.03;;
58101;SDS011;52034;51.926;6.320;2023-12-07T04:40:11;77.83;;;38.07;;
58101;SDS011;52034;51.926;6.320;2023-12-07T04:41:12;132.93;;;41.58;;
58101;SDS011;52034;51.926;6.320;2023-12-07T04:42:12;134.27;;;45.47;;
58101;SDS011;52034;51.926;6.320;2023-12-07T04:43:13;124.23;;;40.10;;
58101;SDS011;52034;51.926;6.320;2023-12-07T04:44:13;105.07;;;38.07;;
58101;SDS011;52034;51.926;6.320;2023-12-07T04:45:13;168.23;;;49.50;;
58101;SDS011;52034;51.926;6.320;2023-12-07T04:46:14;145.87;;;46.37;;
58101;SDS011;52034;51.926;6.320;2023-12-07T04:47:14;96.90;;;39.93;;
58101;SDS011;52034;51.926;6.320;2023-12-07T04:48:15;175.67;;;49.17;;
58101;SDS011;52034;51.926;6.320;2023-12-07T04:49:15;396.10;;;82.13;;
58101;SDS011;52034;51.926;6.320;2023-12-07T04:50:16;178.87;;;52.17;;
58101;SDS011;52034;51.926;6.320;2023-12-07T04:51:16;111.87;;;39.47;;
58101;SDS011;52034;51.926;6.320;2023-12-07T04:52:17;202.00;;;57.47;;
58101;SDS011;52034;51.926;6.320;2023-12-07T04:53:17;117.10;;;44.03;;
58101;SDS011;52034;51.926;6.320;2023-12-07T04:54:17;276.40;;;62.23;;
58101;SDS011;52034;51.926;6.320;2023-12-07T04:56:19;150.95;;;46.88;;
58101;SDS011;52034;51.926;6.320;2023-12-07T04:57:20;328.00;;;70.70;;
58101;SDS011;52034;51.926;6.320;2023-12-07T04:58:20;205.67;;;50.80;;
58101;SDS011;52034;51.926;6.320;2023-12-07T04:59:21;120.20;;;43.07;;
58101;SDS011;52034;51.926;6.320;2023-12-07T05:00:21;108.27;;;37.13;;
58101;SDS011;52034;51.926;6.320;2023-12-07T05:01:22;98.35;;;39.78;;
58101;SDS011;52034;51.926;6.320;2023-12-07T05:02:23;102.73;;;41.43;;
58101;SDS011;52034;51.926;6.320;2023-12-07T05:03:24;257.63;;;58.95;;
58101;SDS011;52034;51.926;6.320;2023-12-07T05:04:24;169.90;;;47.47;;
58101;SDS011;52034;51.926;6.320;2023-12-07T05:05:24;139.03;;;39.90;;
58101;SDS011;52034;51.926;6.320;2023-12-07T05:06:25;142.00;;;44.17;;
58101;SDS011;52034;51.926;6.320;2023-12-07T05:07:25;137.60;;;36.77;;
58101;SDS011;52034;51.926;6.320;2023-12-07T05:08:25;134.97;;;43.43;;
58101;SDS011;52034;51.926;6.320;2023-12-07T05:09:26;76.70;;;38.37;;
58101;SDS011;52034;51.926;6.320;2023-12-07T05:10:26;189.03;;;46.67;;
58101;SDS011;52034;51.926;6.320;2023-12-07T05:11:27;268.40;;;59.23;;
58101;SDS011;52034;51.926;6.320;2023-12-07T05:12:27;120.53;;;41.73;;
58101;SDS011;52034;51.926;6.320;2023-12-07T05:13:28;253.57;;;58.53;;
58101;SDS011;52034;51.926;6.320;2023-12-07T05:14:28;167.40;;;44.90;;
58101;SDS011;52034;51.926;6.320;2023-12-07T05:15:31;135.32;;;40.33;;
58101;SDS011;52034;51.926;6.320;2023-12-07T05:16:31;161.53;;;46.20;;
58101;SDS011;52034;51.926;6.320;2023-12-07T05:17:31;177.03;;;52.80;;
58101;SDS011;52034;51.926;6.320;2023-12-07T05:18:32;115.53;;;44.27;;
58101;SDS011;52034;51.926;6.320;2023-12-07T05:19:33;183.93;;;53.00;;
58101;SDS011;52034;51.926;6.320;2023-12-07T05:20:33;319.43;;;73.37;;
58101;SDS011;52034;51.926;6.320;2023-12-07T05:21:34;128.67;;;44.90;;
58101;SDS011;52034;51.926;6.320;2023-12-07T05:22:34;108.00;;;46.47;;
58101;SDS011;52034;51.926;6.320;2023-12-07T05:23:35;171.40;;;50.37;;
58101;SDS011;52034;51.926;6.320;2023-12-07T05:24:35;142.73;;;48.50;;
58101;SDS011;52034;51.926;6.320;2023-12-07T05:25:35;197.67;;;54.37;;
58101;SDS011;52034;51.926;6.320;2023-12-07T05:26:36;221.43;;;63.83;;
58101;SDS011;52034;51.926;6.320;2023-12-07T05:27:36;266.87;;;72.63;;
58101;SDS011;52034;51.926;6.320;2023-12-07T05:28:37;124.73;;;46.33;;
58101;SDS011;52034;51.926;6.320;2023-12-07T05:29:38;146.35;;;55.47;;
58101;SDS011;52034;51.926;6.320;2023-12-07T05:30:38;194.53;;;60.63;;
58101;SDS011;52034;51.926;6.320;2023-12-07T05:31:39;97.03;;;44.77;;
58101;SDS011;52034;51.926;6.320;2023-12-07T05:32:40;218.68;;;64.93;;
58101;SDS011;52034;51.926;6.320;2023-12-07T05:33:40;130.17;;;48.70;;
58101;SDS011;52034;51.926;6.320;2023-12-07T05:34:40;106.23;;;48.93;;
58101;SDS011;52034;51.926;6.320;2023-12-07T05:35:41;119.30;;;49.73;;
58101;SDS011;52034;51.926;6.320;2023-12-07T05:36:42;129.65;;;48.70;;
58101;SDS011;52034;51.926;6.320;2023-12-07T05:37:42;96.40;;;46.00;;
58101;SDS011;52034;51.926;6.320;2023-12-07T05:38:43;204.03;;;61.93;;
58101;SDS011;52034;51.926;6.320;2023-12-07T05:39:43;125.43;;;49.60;;
58101;SDS011;52034;51.926;6.320;2023-12-07T05:40:44;114.63;;;46.97;;
58101;SDS011;52034;51.926;6.320;2023-12-07T05:41:44;174.13;;;55.17;;
58101;SDS011;52034;51.926;6.320;2023-12-07T05:42:48;183.60;;;57.03;;
58101;SDS011;52034;51.926;6.320;2023-12-07T05:43:49;234.15;;;66.80;;
58101;SDS011;52034;51.926;6.320;2023-12-07T05:44:51;91.75;;;46.90;;
58101;SDS011;52034;51.926;6.320;2023-12-07T05:45:51;102.70;;;47.57;;
58101;SDS011;52034;51.926;6.320;2023-12-07T05:46:52;112.77;;;51.53;;
58101;SDS011;52034;51.926;6.320;2023-12-07T05:47:52;86.03;;;43.87;;
58101;SDS011;52034;51.926;6.320;2023-12-07T05:48:53;190.23;;;50.63;;
58101;SDS011;52034;51.926;6.320;2023-12-07T05:49:53;125.80;;;48.00;;
58101;SDS011;52034;51.926;6.320;2023-12-07T05:50:54;139.03;;;49.33;;
58101;SDS011;52034;51.926;6.320;2023-12-07T05:51:54;224.10;;;59.57;;
58101;SDS011;52034;51.926;6.320;2023-12-07T05:52:54;140.87;;;46.50;;
58101;SDS011;52034;51.926;6.320;2023-12-07T05:53:55;330.67;;;76.43;;
58101;SDS011;52034;51.926;6.320;2023-12-07T05:54:55;108.20;;;43.43;;
58101;SDS011;52034;51.926;6.320;2023-12-07T05:55:56;116.13;;;47.43;;
58101;SDS011;52034;51.926;6.320;2023-12-07T05:56:57;262.60;;;69.97;;